CheckWX is a tool to help pilots better visualize weather data.  It is not intended as a substitute for an official pre-flight weather briefing.

06:45:26 UTC

KCGC METAR
Crystal River-Captain Tom Davis Field Airport
Crystal River, Florida, USA
Current

10 mins ago

KCGC 210635Z AUTO 00000KT 10SM CLR 22/19 A2995 RMK AO2
Observed
May-21 @ 06:35 UTC
Visibility
10 SM
Flight Rules
VFR
Cloud Levels
  • Clear skies
Temperature
22°C / 72°F
Dewpoint
19°C / 66°F
Humidity
83%
Altimeter
29.95" Hg
Pressure
1014.22 hPa
Previous

30 mins ago

KCGC 210615Z AUTO 00000KT 10SM CLR 22/18 A2995 RMK AO2
Observed
May-21 @ 06:15 UTC
Visibility
10 SM
Flight Rules
VFR
Cloud Levels
  • Clear skies
Temperature
22°C / 72°F
Dewpoint
18°C / 64°F
Humidity
78%
Altimeter
29.95" Hg
Pressure
1014.22 hPa
Previous

50 mins ago

KCGC 210555Z AUTO 00000KT 10SM CLR 22/18 A2995 RMK AO2
Observed
May-21 @ 05:55 UTC
Visibility
10 SM
Flight Rules
VFR
Cloud Levels
  • Clear skies
Temperature
22°C / 72°F
Dewpoint
18°C / 64°F
Humidity
78%
Altimeter
29.95" Hg
Pressure
1014.22 hPa